Time;durP1;ratioP1;P1;durP2;ratioP2;P2;SDS_P1;SDS_P2;PMS_P1;PMS_P2;Temp;Humidity;BMP_temperature;BMP_pressure;BME280_temperature;BME280_humidity;BME280_pressure;Samples;Min_cycle;Max_cycle;Signal;HPM_P1;HPM_P2
2023/05/10 00:00:53;;;;;;;127.15;51.37;;;;;;;;;;4453214;32;20043;-69
2023/05/10 00:03:18;;;;;;;132.20;56.65;;;;;;;;;;4453256;32;20026;-68
2023/05/10 00:05:43;;;;;;;124.03;52.00;;;;;;;;;;4458405;32;20021;-67
2023/05/10 00:08:08;;;;;;;121.80;50.85;;;;;;;;;;4467356;32;20112;-67
2023/05/10 00:10:34;;;;;;;108.72;50.42;;;;;;;;;;4467341;32;20382;-68
2023/05/10 00:12:59;;;;;;;116.93;51.28;;;;;;;;;;4467190;32;20044;-68
2023/05/10 00:15:25;;;;;;;144.95;58.42;;;;;;;;;;4466927;32;20081;-68
2023/05/10 00:17:50;;;;;;;104.20;48.53;;;;;;;;;;4468683;32;20081;-68
2023/05/10 00:20:15;;;;;;;114.70;50.97;;;;;;;;;;4466918;32;20020;-68
2023/05/10 00:22:40;;;;;;;136.93;55.25;;;;;;;;;;4468862;32;20021;-67
2023/05/10 00:25:06;;;;;;;130.68;54.38;;;;;;;;;;4467769;32;20021;-67
2023/05/10 00:27:31;;;;;;;101.57;49.10;;;;;;;;;;4467229;32;20025;-67
2023/05/10 00:29:56;;;;;;;;;;;;;;;;;;4468879;32;20052;-68
2023/05/10 00:32:21;;;;;;;172.60;59.38;;;;;;;;;;4467857;32;19932;-68
2023/05/10 00:34:47;;;;;;;124.40;49.92;;;;;;;;;;4454269;32;20102;-67
2023/05/10 00:37:12;;;;;;;129.15;51.60;;;;;;;;;;4468819;32;20017;-67
2023/05/10 00:39:37;;;;;;;121.25;52.33;;;;;;;;;;4467012;32;20070;-68
2023/05/10 00:42:04;;;;;;;116.10;50.67;;;;;;;;;;4468574;32;20365;-68
2023/05/10 00:44:30;;;;;;;152.38;55.75;;;;;;;;;;4466619;32;20048;-68
2023/05/10 00:46:56;;;;;;;109.95;49.40;;;;;;;;;;4466994;32;20021;-67
2023/05/10 00:49:21;;;;;;;;;;;;;;;;;;4466753;32;20055;-68
2023/05/10 00:51:46;;;;;;;123.32;51.15;;;;;;;;;;4468386;32;19947;-68
2023/05/10 00:54:11;;;;;;;;;;;;;;;;;;4466881;32;20478;-68
2023/05/10 00:56:36;;;;;;;120.53;54.55;;;;;;;;;;4466679;32;20277;-67
2023/05/10 00:59:02;;;;;;;122.87;56.17;;;;;;;;;;4468155;32;20021;-68
2023/05/10 01:01:28;;;;;;;139.93;57.40;;;;;;;;;;4467747;32;20100;-68
2023/05/10 01:03:54;;;;;;;107.82;53.42;;;;;;;;;;4468198;32;20107;-68
2023/05/10 01:06:19;;;;;;;;;;;;;;;;;;4456456;32;20022;-70
2023/05/10 01:08:44;;;;;;;155.98;62.42;;;;;;;;;;4451242;32;19955;-68
2023/05/10 01:11:09;;;;;;;138.70;59.47;;;;;;;;;;4450015;32;20022;-68
2023/05/10 01:13:34;;;;;;;;;;;;;;;;;;4452885;32;20038;-68
2023/05/10 01:16:02;;;;;;;132.87;57.22;;;;;;;;;;4452590;32;19929;-68
2023/05/10 01:18:28;;;;;;;142.57;58.70;;;;;;;;;;4453101;32;20086;-68
2023/05/10 01:20:53;;;;;;;;;;;;;;;;;;4452743;32;20025;-68
2023/05/10 01:23:18;;;;;;;169.32;65.00;;;;;;;;;;4452425;32;19964;-68
2023/05/10 01:25:56;;;;;;;160.35;64.68;;;;;;;;;;4451813;32;20014;-68
2023/05/10 01:28:24;;;;;;;130.48;59.05;;;;;;;;;;4452827;32;20063;-68
2023/05/10 01:30:52;;;;;;;122.22;59.13;;;;;;;;;;4450915;32;20017;-68
2023/05/10 01:33:31;;;;;;;156.70;66.25;;;;;;;;;;4450537;32;20117;-68
2023/05/10 01:36:16;;;;;;;181.85;67.32;;;;;;;;;;4457787;32;20043;-68
2023/05/10 01:38:51;;;;;;;140.60;62.45;;;;;;;;;;4470971;32;20080;-68
2023/05/10 01:41:23;;;;;;;143.20;61.53;;;;;;;;;;4470353;32;20017;-68
2023/05/10 01:43:53;;;;;;;150.10;62.35;;;;;;;;;;4470386;32;20045;-69
2023/05/10 01:46:22;;;;;;;125.38;59.30;;;;;;;;;;4470301;32;20334;-69
2023/05/10 01:48:51;;;;;;;113.93;53.60;;;;;;;;;;4470631;32;20094;-69
2023/05/10 01:51:19;;;;;;;139.70;61.67;;;;;;;;;;4465726;32;20373;-69
2023/05/10 01:53:46;;;;;;;132.65;58.60;;;;;;;;;;4454918;32;20041;-69
2023/05/10 01:56:11;;;;;;;160.18;65.15;;;;;;;;;;4469535;32;20049;-69
2023/05/10 01:58:36;;;;;;;;;;;;;;;;;;4456560;32;20047;-69
2023/05/10 02:01:03;;;;;;;108.90;51.60;;;;;;;;;;4454909;32;19932;-68
2023/05/10 02:03:29;;;;;;;142.05;61.03;;;;;;;;;;4453750;32;20081;-68
2023/05/10 02:05:54;;;;;;;;;;;;;;;;;;4455300;32;20100;-69
2023/05/10 02:08:21;;;;;;;127.97;57.33;;;;;;;;;;4454872;32;20050;-69
2023/05/10 02:10:46;;;;;;;129.98;62.08;;;;;;;;;;4455213;32;20363;-68
2023/05/10 02:13:11;;;;;;;;;;;;;;;;;;4454678;32;20040;-69
2023/05/10 02:15:38;;;;;;;114.57;55.95;;;;;;;;;;4440860;32;20314;-68
2023/05/10 02:18:04;;;;;;;150.98;63.90;;;;;;;;;;4455300;32;20086;-69
2023/05/10 02:20:30;;;;;;;129.18;61.47;;;;;;;;;;4454405;32;20022;-69
2023/05/10 02:22:57;;;;;;;137.18;61.63;;;;;;;;;;4453586;32;20044;-69
2023/05/10 02:25:23;;;;;;;128.85;58.72;;;;;;;;;;4455074;32;20064;-69
2023/05/10 02:27:48;;;;;;;128.65;61.13;;;;;;;;;;4462037;32;20029;-69
2023/05/10 02:30:13;;;;;;;;;;;;;;;;;;4454599;32;20330;-69
2023/05/10 02:32:39;;;;;;;120.70;58.60;;;;;;;;;;4470627;32;19936;-69
2023/05/10 02:35:04;;;;;;;143.62;64.93;;;;;;;;;;4454009;32;20069;-69
2023/05/10 02:37:30;;;;;;;133.37;63.17;;;;;;;;;;4470388;32;20021;-69
2023/05/10 02:39:56;;;;;;;137.05;63.38;;;;;;;;;;4470672;32;20342;-69
2023/05/10 02:42:26;;;;;;;127.43;61.05;;;;;;;;;;4470296;32;20043;-69
2023/05/10 02:44:52;;;;;;;114.18;57.70;;;;;;;;;;4470036;32;20067;-69
2023/05/10 02:47:18;;;;;;;113.75;59.40;;;;;;;;;;4469259;32;20135;-69
2023/05/10 02:49:43;;;;;;;;;;;;;;;;;;4468102;32;20086;-70
2023/05/10 02:52:09;;;;;;;112.32;56.67;;;;;;;;;;4470102;32;19940;-68
2023/05/10 02:54:39;;;;;;;149.32;67.65;;;;;;;;;;4469171;32;20144;-68
2023/05/10 02:57:05;;;;;;;141.27;67.00;;;;;;;;;;4470347;32;20017;-68
2023/05/10 02:59:32;;;;;;;128.48;62.47;;;;;;;;;;4468383;32;20025;-69
2023/05/10 03:01:57;;;;;;;119.55;58.03;;;;;;;;;;4468470;32;20075;-68
2023/05/10 03:04:23;;;;;;;138.85;62.97;;;;;;;;;;4455461;32;20017;-69
2023/05/10 03:06:48;;;;;;;136.73;66.18;;;;;;;;;;4470196;32;20025;-68
2023/05/10 03:09:15;;;;;;;137.85;64.47;;;;;;;;;;4468371;32;20073;-68
2023/05/10 03:11:58;;;;;;;120.80;59.38;;;;;;;;;;4470034;32;20025;-68
2023/05/10 03:14:31;;;;;;;111.88;60.28;;;;;;;;;;4469748;32;20080;-67
2023/05/10 03:17:00;;;;;;;103.62;58.63;;;;;;;;;;4469043;32;20136;-68
2023/05/10 03:19:34;;;;;;;130.00;70.50;;;;;;;;;;4469928;32;20025;-67
2023/05/10 03:22:03;;;;;;;128.05;70.00;;;;;;;;;;4469683;32;20021;-68
2023/05/10 03:24:29;;;;;;;122.55;70.12;;;;;;;;;;4469717;32;20047;-68
2023/05/10 03:26:56;;;;;;;113.80;67.00;;;;;;;;;;4466356;32;20033;-69
2023/05/10 03:29:21;;;;;;;122.25;70.20;;;;;;;;;;4453349;32;20033;-68
2023/05/10 03:31:47;;;;;;;128.32;72.03;;;;;;;;;;4452126;32;20426;-67
2023/05/10 03:34:12;;;;;;;116.18;65.00;;;;;;;;;;4453997;32;20029;-68
2023/05/10 03:36:37;;;;;;;119.00;61.80;;;;;;;;;;4452450;32;20163;-68
2023/05/10 03:39:02;;;;;;;96.90;53.95;;;;;;;;;;4452446;32;20048;-68
2023/05/10 03:41:28;;;;;;;93.97;53.63;;;;;;;;;;4438374;32;20490;-69
2023/05/10 03:43:53;;;;;;;103.32;56.78;;;;;;;;;;4452772;32;20045;-69
2023/05/10 03:46:18;;;;;;;117.53;59.60;;;;;;;;;;4452068;32;20068;-68
2023/05/10 03:48:44;;;;;;;108.80;59.50;;;;;;;;;;4453109;32;20491;-68
2023/05/10 03:51:09;;;;;;;120.78;64.45;;;;;;;;;;4452375;32;20025;-69
2023/05/10 03:53:34;;;;;;;103.65;57.75;;;;;;;;;;4452308;32;20066;-68
2023/05/10 03:55:59;;;;;;;119.65;64.03;;;;;;;;;;4452677;32;20060;-67
2023/05/10 03:58:25;;;;;;;122.35;64.80;;;;;;;;;;4466731;32;20798;-68
2023/05/10 04:00:50;;;;;;;132.90;64.97;;;;;;;;;;4468655;32;20370;-69
2023/05/10 04:03:16;;;;;;;140.62;69.32;;;;;;;;;;4452934;32;20024;-69
2023/05/10 04:05:41;;;;;;;126.75;67.28;;;;;;;;;;4469192;32;20399;-69
2023/05/10 04:08:06;;;;;;;138.23;68.25;;;;;;;;;;4469010;32;20104;-68
2023/05/10 04:10:31;;;;;;;120.40;66.60;;;;;;;;;;4467658;32;20017;-69
2023/05/10 04:12:56;;;;;;;125.82;65.10;;;;;;;;;;4467432;32;20098;-69
2023/05/10 04:15:22;;;;;;;137.30;68.72;;;;;;;;;;4468249;32;20044;-68
2023/05/10 04:17:47;;;;;;;111.15;62.60;;;;;;;;;;4467174;32;20065;-68
2023/05/10 04:20:12;;;;;;;115.55;65.50;;;;;;;;;;4453677;32;20381;-68
2023/05/10 04:22:37;;;;;;;114.00;62.90;;;;;;;;;;4467205;32;20029;-69
2023/05/10 04:25:04;;;;;;;92.88;56.45;;;;;;;;;;4468599;32;20025;-68
2023/05/10 04:27:29;;;;;;;105.87;63.53;;;;;;;;;;4467696;32;20047;-69
2023/05/10 04:29:54;;;;;;;119.60;69.43;;;;;;;;;;4467086;32;20334;-69
2023/05/10 04:32:20;;;;;;;112.35;65.15;;;;;;;;;;4453858;32;20035;-68
2023/05/10 04:34:45;;;;;;;111.10;68.12;;;;;;;;;;4466916;32;20017;-69
2023/05/10 04:37:10;;;;;;;118.93;71.70;;;;;;;;;;4450666;32;20039;-69
2023/05/10 04:39:35;;;;;;;115.35;70.15;;;;;;;;;;4453281;32;20018;-69
2023/05/10 04:42:02;;;;;;;117.68;70.40;;;;;;;;;;4451698;32;20021;-67
2023/05/10 04:44:27;;;;;;;102.25;66.70;;;;;;;;;;4452966;32;20144;-68
2023/05/10 04:46:52;;;;;;;;;;;;;;;;;;4453362;32;20387;-70
2023/05/10 04:49:18;;;;;;;102.40;67.75;;;;;;;;;;4451690;32;19979;-68
2023/05/10 04:51:43;;;;;;;109.45;65.07;;;;;;;;;;4452588;32;20026;-69
2023/05/10 04:54:08;;;;;;;107.57;65.80;;;;;;;;;;4450499;32;20360;-70
2023/05/10 04:56:33;;;;;;;100.40;59.92;;;;;;;;;;4451221;32;20070;-69
2023/05/10 04:58:58;;;;;;;120.75;72.45;;;;;;;;;;4452384;32;20044;-69
2023/05/10 05:01:23;;;;;;;95.80;62.03;;;;;;;;;;4452167;32;20059;-69
2023/05/10 05:03:49;;;;;;;73.72;49.30;;;;;;;;;;4449844;32;20096;-68
2023/05/10 05:06:14;;;;;;;67.32;45.78;;;;;;;;;;4451307;32;20424;-68
2023/05/10 05:08:39;;;;;;;60.17;42.62;;;;;;;;;;4465203;32;20025;-68
2023/05/10 05:11:04;;;;;;;69.90;46.28;;;;;;;;;;4456627;32;20073;-69
2023/05/10 05:13:30;;;;;;;72.28;45.67;;;;;;;;;;4450979;32;20397;-69
2023/05/10 05:15:55;;;;;;;73.20;49.08;;;;;;;;;;4452285;32;20070;-69
2023/05/10 05:18:20;;;;;;;74.57;47.05;;;;;;;;;;4450925;32;20048;-68
2023/05/10 05:20:45;;;;;;;79.70;47.50;;;;;;;;;;4450765;32;20018;-69
2023/05/10 05:23:10;;;;;;;80.82;47.80;;;;;;;;;;4452686;32;20327;-67
2023/05/10 05:25:36;;;;;;;75.07;44.10;;;;;;;;;;4451078;32;20026;-70
2023/05/10 05:28:01;;;;;;;57.55;37.58;;;;;;;;;;4450698;32;20077;-69
2023/05/10 05:30:26;;;;;;;55.38;37.75;;;;;;;;;;4451008;32;20092;-67
2023/05/10 05:32:52;;;;;;;54.60;32.65;;;;;;;;;;4449869;32;20029;-67
2023/05/10 05:35:17;;;;;;;52.05;33.45;;;;;;;;;;4459085;32;20417;-68
2023/05/10 05:37:42;;;;;;;54.72;32.08;;;;;;;;;;4456227;32;20017;-69
2023/05/10 05:40:08;;;;;;;52.05;31.83;;;;;;;;;;4455722;32;20149;-68
2023/05/10 05:42:33;;;;;;;46.88;31.27;;;;;;;;;;4443931;32;20061;-68
2023/05/10 05:44:58;;;;;;;47.42;30.23;;;;;;;;;;4463940;32;20104;-68
2023/05/10 05:47:23;;;;;;;56.70;34.10;;;;;;;;;;4467577;32;20056;-69
2023/05/10 05:49:49;;;;;;;54.17;32.95;;;;;;;;;;4462584;32;20071;-69
2023/05/10 05:52:14;;;;;;;55.42;35.08;;;;;;;;;;4457856;32;20070;-69
2023/05/10 05:54:39;;;;;;;58.22;33.90;;;;;;;;;;4451410;32;20064;-69
2023/05/10 05:57:04;;;;;;;53.58;29.90;;;;;;;;;;4450165;32;20026;-68
2023/05/10 05:59:30;;;;;;;46.25;28.58;;;;;;;;;;4451146;32;20021;-69
2023/05/10 06:01:55;;;;;;;40.47;23.40;;;;;;;;;;4450460;32;20410;-68
2023/05/10 06:04:20;;;;;;;38.17;23.55;;;;;;;;;;4450567;32;20385;-68
2023/05/10 06:06:45;;;;;;;39.58;23.40;;;;;;;;;;4451523;32;20017;-69
2023/05/10 06:09:10;;;;;;;40.33;24.35;;;;;;;;;;4466819;32;20021;-69
2023/05/10 06:11:36;;;;;;;38.75;22.98;;;;;;;;;;4454854;32;20025;-69
2023/05/10 06:14:03;;;;;;;36.03;21.75;;;;;;;;;;4449883;32;20048;-69
2023/05/10 06:16:28;;;;;;;38.05;23.10;;;;;;;;;;4451219;32;20059;-68
2023/05/10 06:18:53;;;;;;;42.70;22.13;;;;;;;;;;4452630;32;20030;-68
2023/05/10 06:21:19;;;;;;;33.38;21.25;;;;;;;;;;4450578;32;20017;-70
2023/05/10 06:23:44;;;;;;;33.28;20.85;;;;;;;;;;4452322;32;20021;-69
2023/05/10 06:26:09;;;;;;;38.42;21.60;;;;;;;;;;4454155;32;20096;-69
2023/05/10 06:28:35;;;;;;;39.90;23.10;;;;;;;;;;4452343;32;20030;-69
2023/05/10 06:31:00;;;;;;;33.55;20.33;;;;;;;;;;4453652;32;20376;-68
2023/05/10 06:33:25;;;;;;;31.00;18.87;;;;;;;;;;4452801;32;20026;-69
2023/05/10 06:35:50;;;;;;;30.42;18.30;;;;;;;;;;4452543;32;20047;-69
2023/05/10 06:38:16;;;;;;;23.67;15.77;;;;;;;;;;4450611;32;20028;-69
2023/05/10 06:40:41;;;;;;;20.42;14.60;;;;;;;;;;4470048;32;20374;-68
2023/05/10 06:43:07;;;;;;;18.85;13.25;;;;;;;;;;4468191;32;20398;-67
2023/05/10 06:45:32;;;;;;;16.42;12.37;;;;;;;;;;4455013;32;20017;-68
2023/05/10 06:47:57;;;;;;;22.40;13.75;;;;;;;;;;4469446;32;20053;-68
2023/05/10 06:50:22;;;;;;;13.18;9.85;;;;;;;;;;4468112;32;20084;-68
2023/05/10 06:52:47;;;;;;;15.60;11.93;;;;;;;;;;4450057;32;20089;-68
2023/05/10 06:55:13;;;;;;;11.93;9.52;;;;;;;;;;4458799;32;20117;-68
2023/05/10 06:57:38;;;;;;;18.27;11.00;;;;;;;;;;4460784;32;20056;-69
2023/05/10 07:00:06;;;;;;;11.30;9.02;;;;;;;;;;4451405;32;20055;-69
2023/05/10 07:02:31;;;;;;;14.25;10.57;;;;;;;;;;4450523;32;20097;-68
2023/05/10 07:04:57;;;;;;;10.32;9.00;;;;;;;;;;4452779;32;20085;-69
2023/05/10 07:07:22;;;;;;;9.75;8.35;;;;;;;;;;4458505;32;20067;-69
2023/05/10 07:09:48;;;;;;;17.98;8.85;;;;;;;;;;4451627;32;20044;-68
2023/05/10 07:12:13;;;;;;;13.70;8.55;;;;;;;;;;4438708;32;20010;-68
2023/05/10 07:14:39;;;;;;;15.13;8.77;;;;;;;;;;4453290;32;20050;-69
2023/05/10 07:17:04;;;;;;;14.43;7.70;;;;;;;;;;4453468;32;20415;-68
2023/05/10 07:19:29;;;;;;;11.32;8.95;;;;;;;;;;4451395;32;20052;-69
2023/05/10 07:21:55;;;;;;;10.68;8.68;;;;;;;;;;4451895;32;20416;-68
2023/05/10 07:24:20;;;;;;;10.02;8.07;;;;;;;;;;4452402;32;20018;-68
2023/05/10 07:26:45;;;;;;;9.30;7.57;;;;;;;;;;4466748;32;20021;-68
2023/05/10 07:29:10;;;;;;;8.77;7.10;;;;;;;;;;4466113;32;20073;-69
2023/05/10 07:31:35;;;;;;;9.88;8.23;;;;;;;;;;4452940;32;20064;-69
2023/05/10 07:34:01;;;;;;;11.12;9.50;;;;;;;;;;4453031;32;20088;-69
2023/05/10 07:36:26;;;;;;;12.55;8.15;;;;;;;;;;4453353;32;20044;-68
2023/05/10 07:38:51;;;;;;;12.00;8.27;;;;;;;;;;4450484;32;20143;-69
2023/05/10 07:41:16;;;;;;;18.83;10.23;;;;;;;;;;4451664;32;20025;-69
2023/05/10 07:43:41;;;;;;;10.80;8.00;;;;;;;;;;4454962;32;20062;-67
2023/05/10 07:46:07;;;;;;;9.55;6.30;;;;;;;;;;4451849;32;20044;-68
2023/05/10 07:48:32;;;;;;;11.98;8.18;;;;;;;;;;4451806;32;20078;-68
2023/05/10 07:50:57;;;;;;;9.60;7.25;;;;;;;;;;4449012;32;20103;-68
2023/05/10 07:53:22;;;;;;;9.95;7.47;;;;;;;;;;4449867;32;20017;-68
2023/05/10 07:55:54;;;;;;;9.23;6.93;;;;;;;;;;4450141;32;20041;-69
2023/05/10 07:58:19;;;;;;;8.32;6.47;;;;;;;;;;4446196;32;20033;-68
2023/05/10 08:00:44;;;;;;;10.05;7.10;;;;;;;;;;4450578;32;20547;-68
2023/05/10 08:03:09;;;;;;;9.68;7.25;;;;;;;;;;4452240;32;20063;-68
2023/05/10 08:05:35;;;;;;;10.80;8.45;;;;;;;;;;4438155;32;20017;-68
2023/05/10 08:08:00;;;;;;;8.95;7.20;;;;;;;;;;4437116;32;20036;-69
2023/05/10 08:10:25;;;;;;;11.90;7.90;;;;;;;;;;4452758;32;20084;-68
2023/05/10 08:12:50;;;;;;;8.90;7.15;;;;;;;;;;4451226;32;20446;-67
2023/05/10 08:15:15;;;;;;;8.38;7.45;;;;;;;;;;4452135;32;20017;-67
2023/05/10 08:17:41;;;;;;;9.95;7.30;;;;;;;;;;4451049;32;20059;-67
2023/05/10 08:20:07;;;;;;;11.32;7.62;;;;;;;;;;4451598;32;20017;-68
2023/05/10 08:22:32;;;;;;;10.68;7.05;;;;;;;;;;4451917;32;20017;-69
2023/05/10 08:24:58;;;;;;;10.32;8.32;;;;;;;;;;4452894;32;20061;-68
2023/05/10 08:27:23;;;;;;;10.85;7.80;;;;;;;;;;4451011;32;20078;-68
2023/05/10 08:29:48;;;;;;;10.10;7.30;;;;;;;;;;4450823;32;20398;-67
2023/05/10 08:32:13;;;;;;;13.20;7.05;;;;;;;;;;4451127;32;20044;-68
2023/05/10 08:34:38;;;;;;;11.88;7.97;;;;;;;;;;4451820;32;20034;-69
2023/05/10 08:37:04;;;;;;;11.98;8.38;;;;;;;;;;4451213;32;20047;-69
2023/05/10 08:39:29;;;;;;;13.18;8.45;;;;;;;;;;4452447;32;20022;-68
2023/05/10 08:41:57;;;;;;;11.07;8.80;;;;;;;;;;4453680;32;20040;-68
2023/05/10 08:44:23;;;;;;;11.43;7.80;;;;;;;;;;4452680;32;20391;-68
2023/05/10 08:46:51;;;;;;;9.55;7.07;;;;;;;;;;4450521;32;20099;-68
2023/05/10 08:49:20;;;;;;;11.85;7.22;;;;;;;;;;4451719;32;20076;-67
2023/05/10 08:51:49;;;;;;;10.98;7.62;;;;;;;;;;4450466;32;20036;-68
2023/05/10 08:54:14;;;;;;;12.37;7.78;;;;;;;;;;4437317;32;20101;-69
2023/05/10 08:56:40;;;;;;;16.77;7.82;;;;;;;;;;4436857;32;20438;-68
2023/05/10 08:59:05;;;;;;;13.62;8.60;;;;;;;;;;4450554;32;20334;-67
2023/05/10 09:01:31;;;;;;;13.90;7.82;;;;;;;;;;4451153;32;20062;-67
2023/05/10 09:03:56;;;;;;;16.73;9.38;;;;;;;;;;4437992;32;20071;-67
2023/05/10 09:06:22;;;;;;;15.25;7.87;;;;;;;;;;4450241;32;20418;-68
2023/05/10 09:08:47;;;;;;;14.02;8.43;;;;;;;;;;4450169;32;20103;-68
2023/05/10 09:11:13;;;;;;;14.38;9.48;;;;;;;;;;4436903;32;20040;-70
2023/05/10 09:13:38;;;;;;;12.52;9.43;;;;;;;;;;4452372;32;20065;-68
2023/05/10 09:16:04;;;;;;;15.32;8.82;;;;;;;;;;4451433;32;20044;-68
2023/05/10 09:18:29;;;;;;;11.35;8.38;;;;;;;;;;4452362;32;20121;-68
2023/05/10 09:20:54;;;;;;;11.02;7.32;;;;;;;;;;4437255;32;20092;-69
2023/05/10 09:23:19;;;;;;;16.83;8.20;;;;;;;;;;4451264;32;20056;-67
2023/05/10 09:25:45;;;;;;;10.63;8.68;;;;;;;;;;4452460;32;20020;-67
2023/05/10 09:28:11;;;;;;;13.07;8.32;;;;;;;;;;4451748;32;20098;-68
2023/05/10 09:30:36;;;;;;;10.57;7.57;;;;;;;;;;4450256;32;20025;-67
2023/05/10 09:33:01;;;;;;;10.32;7.72;;;;;;;;;;4451310;32;20066;-68
2023/05/10 09:35:28;;;;;;;13.48;7.70;;;;;;;;;;4437040;32;20041;-69
2023/05/10 09:37:54;;;;;;;11.35;7.40;;;;;;;;;;4436311;32;20362;-68
2023/05/10 09:40:21;;;;;;;10.30;7.07;;;;;;;;;;4449933;32;20489;-67
2023/05/10 09:42:52;;;;;;;11.95;7.40;;;;;;;;;;4451759;32;20059;-67
2023/05/10 09:45:17;;;;;;;10.85;7.30;;;;;;;;;;4450207;32;20044;-68
2023/05/10 09:47:42;;;;;;;10.48;7.12;;;;;;;;;;4451726;32;20026;-69
2023/05/10 09:50:09;;;;;;;12.30;7.75;;;;;;;;;;4436652;32;20053;-68
2023/05/10 09:52:47;;;;;;;13.40;8.80;;;;;;;;;;4450860;32;20017;-68
2023/05/10 09:55:12;;;;;;;10.85;8.05;;;;;;;;;;4451407;32;20025;-68
2023/05/10 09:57:38;;;;;;;10.45;6.95;;;;;;;;;;4452618;32;20381;-69
2023/05/10 10:00:05;;;;;;;10.85;7.70;;;;;;;;;;4454992;32;20037;-68
2023/05/10 10:02:30;;;;;;;12.30;8.05;;;;;;;;;;4441144;32;20047;-68
2023/05/10 10:04:56;;;;;;;11.57;6.43;;;;;;;;;;4453407;32;20021;-69
2023/05/10 10:07:27;;;;;;;10.82;8.18;;;;;;;;;;4453480;32;20367;-69
2023/05/10 10:09:52;;;;;;;11.73;7.90;;;;;;;;;;4452658;32;20082;-70
2023/05/10 10:12:19;;;;;;;11.02;7.62;;;;;;;;;;4440362;32;20080;-69
2023/05/10 10:14:44;;;;;;;11.07;7.57;;;;;;;;;;4453449;32;20017;-69
2023/05/10 10:17:10;;;;;;;12.40;6.93;;;;;;;;;;4452500;32;20379;-69
2023/05/10 10:19:35;;;;;;;10.73;6.62;;;;;;;;;;4455764;32;20097;-68
2023/05/10 10:22:00;;;;;;;10.95;7.20;;;;;;;;;;4454006;32;20013;-68
2023/05/10 10:24:26;;;;;;;10.13;6.85;;;;;;;;;;4461024;32;20097;-67
2023/05/10 10:26:55;;;;;;;11.23;7.65;;;;;;;;;;4460520;32;20101;-69
2023/05/10 10:29:33;;;;;;;13.95;12.48;;;;;;;;;;4452777;32;20056;-69
2023/05/10 10:32:34;;;;;;;17.92;13.38;;;;;;;;;;4444496;32;20109;-68
2023/05/10 10:34:59;;;;;;;19.70;12.25;;;;;;;;;;4391235;32;20049;-68
2023/05/10 10:37:41;;;;;;;15.90;13.02;;;;;;;;;;4437966;32;20045;-67
2023/05/10 10:40:25;;;;;;;18.17;14.57;;;;;;;;;;4455529;32;20013;-68
2023/05/10 10:42:51;;;;;;;11.20;9.10;;;;;;;;;;4441089;32;20025;-68
2023/05/10 10:45:16;;;;;;;9.45;6.90;;;;;;;;;;4452809;32;20454;-68
2023/05/10 10:47:43;;;;;;;10.68;6.65;;;;;;;;;;4440034;32;20094;-69
2023/05/10 10:50:09;;;;;;;10.63;7.80;;;;;;;;;;4439481;32;20087;-69
2023/05/10 10:52:34;;;;;;;8.65;6.50;;;;;;;;;;4455698;32;20017;-68
2023/05/10 10:55:01;;;;;;;8.32;6.28;;;;;;;;;;4458567;32;20051;-68
2023/05/10 10:57:26;;;;;;;8.85;6.03;;;;;;;;;;4463071;32;20318;-68
2023/05/10 11:00:11;;;;;;;7.60;6.07;;;;;;;;;;4469834;32;20016;-67
2023/05/10 11:02:45;;;;;;;7.85;6.70;;;;;;;;;;4453333;32;20382;-68
2023/05/10 11:05:29;;;;;;;9.10;7.32;;;;;;;;;;4468850;32;20051;-68
2023/05/10 11:07:55;;;;;;;11.52;7.62;;;;;;;;;;4452272;32;20099;-68
2023/05/10 11:10:21;;;;;;;15.32;10.00;;;;;;;;;;4451848;32;20067;-68
2023/05/10 11:12:53;;;;;;;13.05;9.13;;;;;;;;;;4453393;32;20339;-68
2023/05/10 11:15:19;;;;;;;15.43;9.65;;;;;;;;;;4451980;32;20072;-68
2023/05/10 11:17:47;;;;;;;17.65;11.40;;;;;;;;;;4453253;32;20081;-69
2023/05/10 11:20:14;;;;;;;16.30;10.30;;;;;;;;;;4453598;32;20395;-69
2023/05/10 11:22:49;;;;;;;11.95;9.55;;;;;;;;;;4463123;32;20112;-70
2023/05/10 11:25:15;;;;;;;18.17;11.43;;;;;;;;;;4468972;32;20458;-69
2023/05/10 11:27:40;;;;;;;15.23;10.40;;;;;;;;;;4457910;32;20029;-69
2023/05/10 11:30:06;;;;;;;15.85;9.77;;;;;;;;;;4453728;32;20025;-70
2023/05/10 11:32:31;;;;;;;14.50;9.88;;;;;;;;;;4445245;32;20040;-69
2023/05/10 11:34:56;;;;;;;21.37;10.68;;;;;;;;;;4453613;32;20448;-69
2023/05/10 11:37:22;;;;;;;13.10;9.70;;;;;;;;;;4457167;32;20021;-69
2023/05/10 11:39:47;;;;;;;15.30;10.10;;;;;;;;;;4453005;32;20021;-70
2023/05/10 11:42:12;;;;;;;11.43;8.65;;;;;;;;;;4458267;32;20043;-68
2023/05/10 11:44:37;;;;;;;12.98;9.02;;;;;;;;;;4467453;32;20056;-69
2023/05/10 11:47:03;;;;;;;11.45;8.68;;;;;;;;;;4467726;32;20036;-69
2023/05/10 11:49:28;;;;;;;7.78;6.95;;;;;;;;;;4467190;32;20068;-69
2023/05/10 11:52:03;;;;;;;9.95;6.90;;;;;;;;;;4469240;32;20022;-68
2023/05/10 11:54:28;;;;;;;8.50;5.82;;;;;;;;;;4454082;32;20197;-69
2023/05/10 11:56:54;;;;;;;7.78;5.72;;;;;;;;;;4462400;32;20055;-68
2023/05/10 11:59:19;;;;;;;6.72;6.03;;;;;;;;;;4453406;32;20420;-69
2023/05/10 12:01:44;;;;;;;7.87;6.40;;;;;;;;;;4451554;32;20029;-68
2023/05/10 12:04:10;;;;;;;8.50;7.37;;;;;;;;;;4452559;32;20021;-69
2023/05/10 12:06:40;;;;;;;10.25;7.43;;;;;;;;;;4452757;32;20429;-69
2023/05/10 12:09:06;;;;;;;14.57;9.13;;;;;;;;;;4438611;32;20022;-68
2023/05/10 12:11:31;;;;;;;12.00;8.00;;;;;;;;;;4440436;32;20048;-68
2023/05/10 12:13:56;;;;;;;9.63;7.43;;;;;;;;;;4467217;32;20017;-69
2023/05/10 12:16:23;;;;;;;9.68;7.65;;;;;;;;;;4459922;32;20021;-68
2023/05/10 12:18:48;;;;;;;11.12;8.05;;;;;;;;;;4454385;32;20072;-70
2023/05/10 12:21:15;;;;;;;13.77;8.45;;;;;;;;;;4452918;32;20056;-70
2023/05/10 12:23:40;;;;;;;10.07;7.15;;;;;;;;;;4452463;32;20037;-70
2023/05/10 12:26:05;;;;;;;19.55;9.60;;;;;;;;;;4453119;32;20020;-70
2023/05/10 12:28:31;;;;;;;9.75;7.93;;;;;;;;;;4450755;32;20021;-69
2023/05/10 12:30:59;;;;;;;10.40;7.85;;;;;;;;;;4439502;32;20037;-68
2023/05/10 12:33:25;;;;;;;10.65;7.53;;;;;;;;;;4450886;32;20411;-68
2023/05/10 12:35:51;;;;;;;10.00;7.85;;;;;;;;;;4452447;32;20029;-69
2023/05/10 12:38:33;;;;;;;12.35;8.02;;;;;;;;;;4452169;32;20017;-68
2023/05/10 12:40:59;;;;;;;9.10;7.15;;;;;;;;;;4450588;32;20049;-68
2023/05/10 12:43:24;;;;;;;10.73;7.25;;;;;;;;;;4451456;32;20073;-69
2023/05/10 12:45:50;;;;;;;8.55;6.12;;;;;;;;;;4450686;32;20025;-70
2023/05/10 12:48:15;;;;;;;11.88;7.20;;;;;;;;;;4450810;32;20052;-67
2023/05/10 12:50:40;;;;;;;10.25;7.85;;;;;;;;;;4450738;32;20384;-68
2023/05/10 12:53:05;;;;;;;12.85;7.05;;;;;;;;;;4451354;32;20021;-67
2023/05/10 12:55:31;;;;;;;12.57;7.65;;;;;;;;;;4451460;32;20033;-69
2023/05/10 12:57:56;;;;;;;8.73;7.03;;;;;;;;;;4457025;32;20205;-69
2023/05/10 13:00:21;;;;;;;7.03;5.70;;;;;;;;;;4451470;32;20026;-69
2023/05/10 13:02:46;;;;;;;10.55;5.55;;;;;;;;;;4452327;32;20081;-69
2023/05/10 13:05:12;;;;;;;12.65;6.15;;;;;;;;;;4451061;32;20368;-68
2023/05/10 13:07:38;;;;;;;9.15;6.55;;;;;;;;;;4450808;32;20045;-68
2023/05/10 13:10:03;;;;;;;10.20;6.57;;;;;;;;;;4452089;32;20090;-70
2023/05/10 13:12:29;;;;;;;10.05;6.70;;;;;;;;;;4451660;32;20387;-68
2023/05/10 13:14:54;;;;;;;12.75;7.68;;;;;;;;;;4453644;32;20043;-69
2023/05/10 13:17:19;;;;;;;8.13;6.68;;;;;;;;;;4456760;32;20021;-68
2023/05/10 13:19:44;;;;;;;12.70;7.70;;;;;;;;;;4450965;32;20048;-69
2023/05/10 13:22:10;;;;;;;13.05;8.70;;;;;;;;;;4458837;32;20072;-68
2023/05/10 13:24:35;;;;;;;11.27;7.78;;;;;;;;;;4467083;32;20032;-69
2023/05/10 13:27:00;;;;;;;12.00;8.25;;;;;;;;;;4458851;32;20404;-68
2023/05/10 13:29:25;;;;;;;13.68;7.62;;;;;;;;;;4451919;32;20078;-68
2023/05/10 13:31:50;;;;;;;10.13;7.40;;;;;;;;;;4448721;32;20018;-68
2023/05/10 13:34:16;;;;;;;13.00;7.30;;;;;;;;;;4455443;32;20070;-69
2023/05/10 13:36:41;;;;;;;13.45;7.85;;;;;;;;;;4457374;32;20034;-69
2023/05/10 13:39:07;;;;;;;11.48;9.00;;;;;;;;;;4441449;32;20084;-68
2023/05/10 13:41:32;;;;;;;15.80;9.43;;;;;;;;;;4440312;32;20108;-68
2023/05/10 13:43:57;;;;;;;12.55;9.27;;;;;;;;;;4455365;32;20045;-68
2023/05/10 13:46:22;;;;;;;11.82;8.10;;;;;;;;;;4454677;32;20047;-69
2023/05/10 13:48:48;;;;;;;9.77;7.30;;;;;;;;;;4455209;32;20393;-68
2023/05/10 13:51:13;;;;;;;13.98;8.27;;;;;;;;;;4456648;32;20112;-68
2023/05/10 13:53:38;;;;;;;13.40;8.40;;;;;;;;;;4468852;32;20107;-69
2023/05/10 13:56:04;;;;;;;12.18;7.55;;;;;;;;;;4469322;32;20100;-69
2023/05/10 13:58:29;;;;;;;11.40;7.37;;;;;;;;;;4469666;32;20402;-68
2023/05/10 14:00:54;;;;;;;11.52;7.15;;;;;;;;;;4462906;32;20021;-68
2023/05/10 14:03:19;;;;;;;11.15;6.70;;;;;;;;;;4440688;32;20409;-68
2023/05/10 14:05:45;;;;;;;13.15;7.22;;;;;;;;;;4454749;32;20431;-67
2023/05/10 14:08:10;;;;;;;10.80;7.05;;;;;;;;;;4452899;32;20033;-69
2023/05/10 14:10:36;;;;;;;9.43;6.70;;;;;;;;;;4454671;32;20041;-67
2023/05/10 14:13:03;;;;;;;11.45;6.43;;;;;;;;;;4455001;32;20021;-68
2023/05/10 14:15:28;;;;;;;11.35;6.68;;;;;;;;;;4453013;32;20376;-68
2023/05/10 14:17:53;;;;;;;7.50;5.57;;;;;;;;;;4454963;32;20018;-69
2023/05/10 14:20:18;;;;;;;8.35;6.30;;;;;;;;;;4454692;32;20058;-68